Time;durP1;ratioP1;P1;durP2;ratioP2;P2;SDS_P1;SDS_P2;PMS_P1;PMS_P2;Temp;Humidity;BMP_temperature;BMP_pressure;BME280_temperature;BME280_humidity;BME280_pressure;Samples;Min_cycle;Max_cycle;Signal;HPM_P1;HPM_P2
2022/07/13 00:02:25;;;;;;;5.93;4.53;;;20.20;99.90;;;;;;4921943;28;89475;-34
2022/07/13 00:04:51;;;;;;;3.95;3.65;;;20.20;99.90;;;;;;4921803;28;88030;-35
2022/07/13 00:07:16;;;;;;;5.13;4.63;;;20.20;99.90;;;;;;4955375;23;90085;-33
2022/07/13 00:09:42;;;;;;;5.07;4.68;;;20.20;99.90;;;;;;4921242;28;90534;-35
2022/07/13 00:12:08;;;;;;;4.97;4.60;;;20.20;99.90;;;;;;4922821;28;90715;-34
2022/07/13 00:14:33;;;;;;;6.68;4.35;;;20.10;99.90;;;;;;4922574;28;88127;-34
2022/07/13 00:17:00;;;;;;;4.88;4.57;;;20.10;99.90;;;;;;4921810;28;90144;-32
2022/07/13 00:19:25;;;;;;;5.07;4.68;;;20.10;99.90;;;;;;4922541;28;89743;-35
2022/07/13 00:21:52;;;;;;;5.32;4.82;;;20.10;99.90;;;;;;4921782;28;89463;-33
2022/07/13 00:24:18;;;;;;;6.90;5.93;;;20.10;99.90;;;;;;4922414;28;89065;-34
2022/07/13 00:26:43;;;;;;;5.60;4.97;;;20.10;99.90;;;;;;4921547;28;90069;-35
2022/07/13 00:29:09;;;;;;;6.35;5.75;;;20.10;99.90;;;;;;4921403;28;90174;-34
2022/07/13 00:31:35;;;;;;;6.35;5.75;;;20.10;99.90;;;;;;4921969;28;90205;-34
2022/07/13 00:34:00;;;;;;;6.88;6.32;;;20.20;99.90;;;;;;4921364;28;90053;-33
2022/07/13 00:36:26;;;;;;;6.50;5.60;;;20.20;99.90;;;;;;4922480;28;90375;-33
2022/07/13 00:38:51;;;;;;;6.90;6.30;;;20.30;99.90;;;;;;4921402;28;89960;-32
2022/07/13 00:41:17;;;;;;;5.68;5.28;;;20.30;99.90;;;;;;4921604;28;89209;-32
2022/07/13 00:43:42;;;;;;;8.75;5.97;;;20.30;99.90;;;;;;4921832;28;89430;-32
2022/07/13 00:46:09;;;;;;;6.35;5.93;;;20.30;99.90;;;;;;4921460;28;91013;-36
2022/07/13 00:48:36;;;;;;;6.45;5.95;;;20.30;99.90;;;;;;4922382;28;89106;-32
2022/07/13 00:51:01;;;;;;;6.72;6.13;;;20.30;99.90;;;;;;4921254;28;90633;-35
2022/07/13 00:53:28;;;;;;;9.90;6.68;;;20.30;99.90;;;;;;4921953;28;90024;-33
2022/07/13 00:55:55;;;;;;;6.43;5.93;;;20.30;99.90;;;;;;4921715;28;90359;-32
2022/07/13 00:58:20;;;;;;;6.80;5.95;;;20.30;99.90;;;;;;4920695;28;90853;-33
2022/07/13 01:00:46;;;;;;;6.65;6.00;;;20.30;99.90;;;;;;4921970;28;90310;-35
2022/07/13 01:03:11;;;;;;;6.82;6.32;;;20.30;99.90;;;;;;4920649;28;89532;-34
2022/07/13 01:05:37;;;;;;;8.65;7.85;;;20.30;99.90;;;;;;4920704;28;90250;-33
2022/07/13 01:08:04;;;;;;;6.43;5.93;;;20.30;99.90;;;;;;4920863;28;89855;-32
2022/07/13 01:10:30;;;;;;;6.97;6.38;;;20.30;99.90;;;;;;4921137;28;89864;-34
2022/07/13 01:12:56;;;;;;;6.68;6.03;;;20.30;99.90;;;;;;4922069;28;90263;-33
2022/07/13 01:15:22;;;;;;;7.28;6.68;;;20.30;99.90;;;;;;4921213;28;90973;-34
2022/07/13 01:17:48;;;;;;;7.90;7.20;;;20.30;99.90;;;;;;4920818;28;89585;-35
2022/07/13 01:20:17;;;;;;;7.32;6.72;;;20.30;99.90;;;;;;4921165;28;88694;-34
2022/07/13 01:22:46;;;;;;;6.93;6.32;;;20.20;99.90;;;;;;4921369;28;88057;-32
2022/07/13 01:25:14;;;;;;;9.00;8.23;;;20.20;99.90;;;;;;4921196;28;90019;-34
2022/07/13 01:27:41;;;;;;;10.93;7.20;;;20.20;99.90;;;;;;4920562;28;90768;-33
2022/07/13 01:30:07;;;;;;;8.02;7.28;;;20.20;99.90;;;;;;4920494;28;89870;-35
2022/07/13 01:32:50;;;;;;;9.05;8.15;;;20.20;99.90;;;;;;4921289;28;90106;-33
2022/07/13 01:35:18;;;;;;;8.85;8.05;;;20.20;99.90;;;;;;4921272;28;90283;-32
2022/07/13 01:37:44;;;;;;;11.53;7.77;;;20.20;99.90;;;;;;4921067;28;90096;-34
2022/07/13 01:40:11;;;;;;;9.23;8.43;;;20.20;99.90;;;;;;4920871;28;89672;-35
2022/07/13 01:42:45;;;;;;;9.20;8.40;;;20.20;99.90;;;;;;4918921;28;89732;-32
2022/07/13 01:45:13;;;;;;;9.30;8.32;;;20.20;99.90;;;;;;4920958;28;89024;-33
2022/07/13 01:47:39;;;;;;;8.25;7.38;;;20.20;99.90;;;;;;4919212;28;90831;-32
2022/07/13 01:50:10;;;;;;;9.30;8.50;;;20.20;99.90;;;;;;4920711;28;90529;-34
2022/07/13 01:52:36;;;;;;;7.97;7.07;;;20.20;99.90;;;;;;4920777;28;89583;-32
2022/07/13 01:55:07;;;;;;;11.38;7.05;;;20.20;99.90;;;;;;4920245;28;90165;-34
2022/07/13 01:57:33;;;;;;;9.35;8.55;;;20.20;99.90;;;;;;4920502;28;89967;-32
2022/07/13 02:00:00;;;;;;;9.05;8.15;;;20.20;99.90;;;;;;4921198;28;89355;-33
2022/07/13 02:02:25;;;;;;;8.32;7.63;;;20.20;99.90;;;;;;4920929;28;88660;-32
2022/07/13 02:04:51;;;;;;;8.77;8.00;;;20.20;99.90;;;;;;4920782;28;90257;-32
2022/07/13 02:07:17;;;;;;;8.98;7.88;;;20.20;99.90;;;;;;4919647;28;89759;-32
2022/07/13 02:09:43;;;;;;;9.70;8.80;;;20.20;99.90;;;;;;4920681;28;89476;-33
2022/07/13 02:12:08;;;;;;;9.10;8.30;;;20.20;99.90;;;;;;4920501;28;90630;-33
2022/07/13 02:14:34;;;;;;;9.63;8.80;;;20.20;99.90;;;;;;4920139;28;90356;-34
2022/07/13 02:16:59;;;;;;;10.30;9.30;;;20.20;99.90;;;;;;4919726;28;89928;-36
2022/07/13 02:19:25;;;;;;;10.90;10.00;;;20.20;99.90;;;;;;4920229;28;90382;-33
2022/07/13 02:21:50;;;;;;;10.55;9.55;;;20.30;99.90;;;;;;4919700;28;89524;-35
2022/07/13 02:24:16;;;;;;;10.88;9.88;;;20.30;99.90;;;;;;4920379;28;90583;-32
2022/07/13 02:26:42;;;;;;;10.02;9.13;;;20.20;99.90;;;;;;4920637;28;88649;-35
2022/07/13 02:29:07;;;;;;;10.10;9.15;;;20.30;99.90;;;;;;4920762;28;89381;-34
2022/07/13 02:31:34;;;;;;;10.85;9.63;;;20.30;99.90;;;;;;4920151;28;89464;-32
2022/07/13 02:34:00;;;;;;;11.03;10.10;;;20.30;99.90;;;;;;4919118;28;90316;-34
2022/07/13 02:36:26;;;;;;;9.50;8.60;;;20.30;99.90;;;;;;4919245;28;90589;-34
2022/07/13 02:38:52;;;;;;;9.43;8.52;;;20.30;99.90;;;;;;4920514;28;90306;-35
2022/07/13 02:41:17;;;;;;;9.23;8.50;;;20.30;99.90;;;;;;4920617;28;88958;-33
2022/07/13 02:43:43;;;;;;;10.00;9.00;;;20.30;99.90;;;;;;4919266;28;91839;-32
2022/07/13 02:46:08;;;;;;;11.05;9.98;;;20.20;99.90;;;;;;4919749;28;90110;-33
2022/07/13 02:48:34;;;;;;;10.10;9.05;;;20.20;99.90;;;;;;4919747;28;90970;-35
2022/07/13 02:51:00;;;;;;;10.63;9.30;;;20.20;99.90;;;;;;4920236;28;88821;-33
2022/07/13 02:53:25;;;;;;;10.52;9.52;;;20.20;99.90;;;;;;4920441;28;90564;-35
2022/07/13 02:55:51;;;;;;;11.82;10.65;;;20.20;99.90;;;;;;4919284;28;90031;-35
2022/07/13 02:58:17;;;;;;;10.43;9.32;;;20.10;99.90;;;;;;4919012;28;89994;-33
2022/07/13 03:00:42;;;;;;;10.45;9.55;;;20.10;99.90;;;;;;4919570;28;88139;-32
2022/07/13 03:03:08;;;;;;;11.27;10.27;;;20.10;99.90;;;;;;4919436;28;90264;-32
2022/07/13 03:05:33;;;;;;;9.50;8.65;;;20.10;99.90;;;;;;4919296;28;89142;-34
2022/07/13 03:07:59;;;;;;;10.45;9.27;;;20.10;99.90;;;;;;4919084;28;90145;-31
2022/07/13 03:10:24;;;;;;;9.35;8.38;;;20.10;99.90;;;;;;4920366;28;88968;-35
2022/07/13 03:12:50;;;;;;;9.93;8.93;;;20.10;99.90;;;;;;4919372;28;90749;-34
2022/07/13 03:15:15;;;;;;;10.30;9.30;;;20.10;99.90;;;;;;4920252;28;90238;-32
2022/07/13 03:17:41;;;;;;;11.25;9.68;;;20.10;99.90;;;;;;4919464;28;90473;-34
2022/07/13 03:20:08;;;;;;;11.57;10.50;;;20.10;99.90;;;;;;4919701;28;89505;-33
2022/07/13 03:22:34;;;;;;;10.80;9.80;;;20.10;99.90;;;;;;4918805;28;92395;-34
2022/07/13 03:25:00;;;;;;;14.35;10.40;;;20.10;99.90;;;;;;4918707;28;90961;-33
2022/07/13 03:27:25;;;;;;;11.57;10.40;;;20.10;99.90;;;;;;4919021;28;90961;-31
2022/07/13 03:29:51;;;;;;;10.70;9.50;;;20.10;99.90;;;;;;4921172;28;88012;-31
2022/07/13 03:32:17;;;;;;;11.52;10.32;;;20.20;99.90;;;;;;4922023;28;90239;-35
2022/07/13 03:34:42;;;;;;;10.25;9.30;;;20.10;99.90;;;;;;4922205;28;89688;-33
2022/07/13 03:37:08;;;;;;;9.85;8.90;;;20.20;99.90;;;;;;4922363;28;89443;-34
2022/07/13 03:39:34;;;;;;;10.80;9.70;;;20.20;99.90;;;;;;4923318;28;89633;-33
2022/07/13 03:42:00;;;;;;;10.63;9.68;;;20.20;99.90;;;;;;4922360;28;92063;-33
2022/07/13 03:44:26;;;;;;;11.00;10.00;;;20.20;99.90;;;;;;4922089;28;88611;-35
2022/07/13 03:46:51;;;;;;;11.02;9.93;;;20.20;99.90;;;;;;4922084;28;89489;-33
2022/07/13 03:49:17;;;;;;;13.70;10.80;;;20.20;99.90;;;;;;4921999;28;88817;-33
2022/07/13 03:51:43;;;;;;;11.45;9.35;;;20.20;99.90;;;;;;4922447;28;90549;-34
2022/07/13 03:54:09;;;;;;;10.23;9.27;;;20.20;99.90;;;;;;4917654;28;90214;-33
2022/07/13 03:56:34;;;;;;;9.75;8.85;;;20.30;99.90;;;;;;4913039;28;89780;-36
2022/07/13 03:59:00;;;;;;;11.13;10.00;;;20.20;99.90;;;;;;4922269;28;89159;-32
2022/07/13 04:01:26;;;;;;;11.85;10.50;;;20.20;99.90;;;;;;4922114;28;88928;-34
2022/07/13 04:03:52;;;;;;;12.77;9.85;;;20.20;99.90;;;;;;4921516;28;90676;-34
2022/07/13 04:06:19;;;;;;;12.00;8.63;;;20.20;99.90;;;;;;4921592;28;89515;-34
2022/07/13 04:08:44;;;;;;;9.95;8.98;;;20.20;99.90;;;;;;4922223;28;90221;-32
2022/07/13 04:11:10;;;;;;;9.80;8.90;;;20.20;99.90;;;;;;4921824;28;90630;-32
2022/07/13 04:13:36;;;;;;;11.52;9.32;;;20.20;99.90;;;;;;4921865;28;90286;-31
2022/07/13 04:16:01;;;;;;;10.18;9.20;;;20.20;99.90;;;;;;4922257;28;90463;-33
2022/07/13 04:18:27;;;;;;;9.43;8.57;;;20.20;99.90;;;;;;4921824;28;87562;-35
2022/07/13 04:20:52;;;;;;;10.38;9.38;;;20.20;99.90;;;;;;4922798;28;92141;-32
2022/07/13 04:23:18;;;;;;;13.07;9.57;;;20.20;99.90;;;;;;4922069;28;90858;-33
2022/07/13 04:25:44;;;;;;;13.55;9.50;;;20.10;99.90;;;;;;4922441;28;90559;-34
2022/07/13 04:28:10;;;;;;;10.52;9.48;;;20.20;99.90;;;;;;4922168;28;88935;-33
2022/07/13 04:30:36;;;;;;;10.32;9.25;;;20.20;99.90;;;;;;4921712;28;90489;-33
2022/07/13 04:33:01;;;;;;;9.88;9.00;;;20.10;99.90;;;;;;4921878;28;89940;-35
2022/07/13 04:35:27;;;;;;;13.98;10.25;;;20.10;99.90;;;;;;4921755;28;89435;-33
2022/07/13 04:37:52;;;;;;;15.85;9.45;;;20.10;99.90;;;;;;4921184;28;90124;-33
2022/07/13 04:40:18;;;;;;;21.30;9.93;;;20.10;99.90;;;;;;4921107;28;91117;-31
2022/07/13 04:42:44;;;;;;;13.55;9.40;;;20.10;99.90;;;;;;4921091;28;89699;-34
2022/07/13 04:45:10;;;;;;;9.93;8.88;;;20.10;99.90;;;;;;4921432;28;88050;-34
2022/07/13 04:47:36;;;;;;;10.75;9.68;;;20.10;99.90;;;;;;4921403;28;88993;-32
2022/07/13 04:50:02;;;;;;;10.73;9.68;;;20.10;99.90;;;;;;4921511;28;90272;-35
2022/07/13 04:52:28;;;;;;;9.32;8.50;;;20.10;99.90;;;;;;4921876;28;90512;-34
2022/07/13 04:54:53;;;;;;;10.48;9.48;;;20.20;99.90;;;;;;4921696;28;89013;-33
2022/07/13 04:57:19;;;;;;;11.38;9.38;;;20.20;99.90;;;;;;4921368;28;88238;-34
2022/07/13 04:59:44;;;;;;;10.35;8.90;;;20.20;99.90;;;;;;4921597;28;90389;-35
2022/07/13 05:02:10;;;;;;;10.27;9.38;;;20.20;99.90;;;;;;4920179;28;90667;-34
2022/07/13 05:04:35;;;;;;;11.02;9.90;;;20.20;99.90;;;;;;4921138;28;89873;-33
2022/07/13 05:07:01;;;;;;;11.35;8.70;;;20.20;99.90;;;;;;4920657;28;88376;-33
2022/07/13 05:09:27;;;;;;;28.70;10.50;;;20.30;99.90;;;;;;4921185;28;90423;-34
2022/07/13 05:11:52;;;;;;;14.77;9.55;;;20.30;99.90;;;;;;4920690;28;89809;-32
2022/07/13 05:14:18;;;;;;;45.13;11.48;;;20.30;99.90;;;;;;4921389;28;89622;-32
2022/07/13 05:16:43;;;;;;;8.80;7.90;;;20.30;99.90;;;;;;4920593;28;89359;-32
2022/07/13 05:19:10;;;;;;;13.68;9.25;;;20.30;99.90;;;;;;4921470;28;89990;-31
2022/07/13 05:21:36;;;;;;;10.07;8.80;;;20.40;99.90;;;;;;4921376;28;90263;-32
2022/07/13 05:24:02;;;;;;;9.52;8.25;;;20.40;99.90;;;;;;4920927;28;90390;-31
2022/07/13 05:26:28;;;;;;;8.73;7.93;;;20.40;99.90;;;;;;4921549;28;89092;-33
2022/07/13 05:28:53;;;;;;;8.73;7.60;;;20.40;99.90;;;;;;4923716;28;91179;-32
2022/07/13 05:31:19;;;;;;;39.90;10.18;;;20.50;99.90;;;;;;4931550;28;89706;-32
2022/07/13 05:33:44;;;;;;;13.48;8.68;;;20.50;99.90;;;;;;4931921;28;89288;-32
2022/07/13 05:36:10;;;;;;;8.30;6.57;;;20.60;99.90;;;;;;4931999;28;87647;-33
2022/07/13 05:38:36;;;;;;;7.80;6.35;;;20.60;99.90;;;;;;4933474;28;90226;-33
2022/07/13 05:41:02;;;;;;;16.13;7.90;;;20.70;99.90;;;;;;4933766;28;89629;-33
2022/07/13 05:43:28;;;;;;;6.78;6.07;;;20.70;99.90;;;;;;4920532;28;89467;-33
2022/07/13 05:45:53;;;;;;;18.73;6.60;;;20.80;99.90;;;;;;4911447;28;88221;-32
2022/07/13 05:48:19;;;;;;;13.27;7.07;;;20.80;99.90;;;;;;4908833;28;89863;-33
2022/07/13 05:50:45;;;;;;;7.88;5.57;;;20.90;99.90;;;;;;4915673;28;91350;-32
2022/07/13 05:53:11;;;;;;;6.97;6.03;;;21.00;99.90;;;;;;4911934;28;89997;-33
2022/07/13 05:55:37;;;;;;;7.38;6.55;;;21.00;99.90;;;;;;4917160;28;88668;-35
2022/07/13 05:58:03;;;;;;;5.75;4.82;;;21.10;99.90;;;;;;4917344;28;90667;-34
2022/07/13 06:00:28;;;;;;;6.05;5.45;;;21.20;99.90;;;;;;4919689;28;90153;-34
2022/07/13 06:02:54;;;;;;;11.55;5.93;;;21.30;99.90;;;;;;4914918;28;89558;-31
2022/07/13 06:05:20;;;;;;;4.72;4.32;;;21.30;99.90;;;;;;4912566;28;88338;-32
2022/07/13 06:07:45;;;;;;;7.45;5.80;;;21.40;99.90;;;;;;4929045;28;90317;-34
2022/07/13 06:10:11;;;;;;;14.25;5.72;;;21.40;99.90;;;;;;4921714;28;89961;-32
2022/07/13 06:12:37;;;;;;;5.53;4.90;;;21.50;99.90;;;;;;4925335;28;88866;-33
2022/07/13 06:15:03;;;;;;;5.60;5.10;;;21.50;99.90;;;;;;4923799;28;89304;-33
2022/07/13 06:17:28;;;;;;;5.55;5.05;;;21.60;99.90;;;;;;4926652;28;91195;-33
2022/07/13 06:19:54;;;;;;;5.38;4.97;;;21.60;99.90;;;;;;4928199;28;90005;-33
2022/07/13 06:22:19;;;;;;;7.60;5.20;;;21.70;99.90;;;;;;4926395;28;90029;-32
2022/07/13 06:24:45;;;;;;;5.72;5.22;;;21.70;99.90;;;;;;4922619;28;88173;-31
2022/07/13 06:27:11;;;;;;;5.70;5.15;;;21.80;99.90;;;;;;4922317;28;90425;-32
2022/07/13 06:29:37;;;;;;;6.35;5.75;;;21.90;99.90;;;;;;4917731;28;90059;-34
2022/07/13 06:32:02;;;;;;;6.40;4.55;;;21.90;99.90;;;;;;4917064;28;89618;-34
2022/07/13 06:34:28;;;;;;;6.25;4.53;;;22.00;99.90;;;;;;4925961;28;88194;-34
2022/07/13 06:36:54;;;;;;;6.60;4.75;;;22.00;99.90;;;;;;4926544;28;90435;-35
2022/07/13 06:39:19;;;;;;;6.32;5.72;;;22.10;99.90;;;;;;4928659;28;91264;-31
2022/07/13 06:41:45;;;;;;;4.53;4.00;;;22.20;99.90;;;;;;4929746;28;90358;-34
2022/07/13 06:44:11;;;;;;;5.03;4.53;;;22.20;99.90;;;;;;4929561;28;87697;-33
2022/07/13 06:46:37;;;;;;;6.63;4.82;;;22.30;99.90;;;;;;4925715;28;90276;-33
2022/07/13 06:49:02;;;;;;;6.53;4.25;;;22.40;99.90;;;;;;4926443;28;89997;-33
2022/07/13 06:51:28;;;;;;;5.20;4.72;;;22.60;99.90;;;;;;4924403;28;89510;-33
2022/07/13 06:53:54;;;;;;;6.03;4.57;;;22.70;99.90;;;;;;4926831;28;87559;-31
2022/07/13 06:56:20;;;;;;;5.22;4.25;;;22.80;99.90;;;;;;4925943;28;89793;-33
2022/07/13 06:58:46;;;;;;;5.47;4.90;;;23.00;99.90;;;;;;4931870;28;89781;-32
2022/07/13 07:01:12;;;;;;;10.82;4.60;;;23.10;99.90;;;;;;4931901;28;89499;-32
2022/07/13 07:03:37;;;;;;;4.72;4.38;;;23.20;99.90;;;;;;4917293;28;88492;-32
2022/07/13 07:06:04;;;;;;;3.92;3.63;;;23.30;99.90;;;;;;4914830;28;90054;-32
2022/07/13 07:08:30;;;;;;;4.57;4.20;;;23.40;99.90;;;;;;4933218;28;89870;-32
2022/07/13 07:10:55;;;;;;;6.07;4.47;;;23.60;99.90;;;;;;4928304;28;88974;-32
2022/07/13 07:13:21;;;;;;;4.45;4.15;;;23.80;99.90;;;;;;4923509;28;89275;-34
2022/07/13 07:15:47;;;;;;;16.20;4.95;;;23.90;99.90;;;;;;4922426;28;91653;-32
2022/07/13 07:18:12;;;;;;;5.85;4.65;;;24.20;99.90;;;;;;4921931;28;89432;-33
2022/07/13 07:20:38;;;;;;;7.57;5.38;;;24.50;99.90;;;;;;4922925;28;89803;-31
2022/07/13 07:23:04;;;;;;;4.60;4.15;;;24.80;99.90;;;;;;4922730;28;88216;-35
2022/07/13 07:25:29;;;;;;;6.88;4.53;;;25.10;99.90;;;;;;4922761;28;89677;-34
2022/07/13 07:27:55;;;;;;;5.30;4.63;;;25.40;99.90;;;;;;4922018;28;90823;-34
2022/07/13 07:30:20;;;;;;;7.03;4.53;;;25.60;99.90;;;;;;4922546;28;90527;-32
2022/07/13 07:32:46;;;;;;;4.90;4.35;;;25.60;99.90;;;;;;4922876;28;89519;-34
2022/07/13 07:35:12;;;;;;;6.35;5.68;;;25.50;99.90;;;;;;4922531;28;90418;-32
2022/07/13 07:37:39;;;;;;;10.02;5.45;;;25.30;99.90;;;;;;4922495;28;89568;-33
2022/07/13 07:40:08;;;;;;;6.27;5.17;;;25.10;99.90;;;;;;4922296;28;89561;-34
2022/07/13 07:42:35;;;;;;;7.32;6.55;;;25.00;99.90;;;;;;4922597;28;89237;-33
2022/07/13 07:45:01;;;;;;;6.78;5.63;;;24.80;99.90;;;;;;4922657;28;90176;-32
2022/07/13 07:47:27;;;;;;;5.60;5.10;;;24.60;99.90;;;;;;4922270;28;90128;-35
2022/07/13 07:49:53;;;;;;;4.72;4.32;;;24.50;99.90;;;;;;4922652;28;88761;-34
2022/07/13 07:52:19;;;;;;;9.93;4.90;;;24.40;99.90;;;;;;4922496;28;89497;-34
2022/07/13 07:54:46;;;;;;;7.65;5.30;;;24.30;99.90;;;;;;4922142;28;88914;-31
2022/07/13 07:57:12;;;;;;;6.95;5.05;;;24.30;99.90;;;;;;4922312;28;89553;-35
2022/07/13 07:59:38;;;;;;;6.53;5.90;;;24.30;99.90;;;;;;4922530;28;91165;-32
2022/07/13 08:02:03;;;;;;;5.35;4.85;;;24.30;99.90;;;;;;4922344;28;88215;-32
2022/07/13 08:04:29;;;;;;;5.20;4.70;;;24.40;99.90;;;;;;4922682;28;90046;-33
2022/07/13 08:06:55;;;;;;;6.28;5.68;;;24.40;99.90;;;;;;4921885;28;89898;-34
2022/07/13 08:09:20;;;;;;;7.00;6.30;;;24.50;99.90;;;;;;4922194;28;88623;-31
2022/07/13 08:11:46;;;;;;;8.25;7.15;;;24.60;99.90;;;;;;4922257;28;88712;-32
2022/07/13 08:14:11;;;;;;;6.72;6.18;;;24.70;99.90;;;;;;4921443;28;89930;-33
2022/07/13 08:16:37;;;;;;;6.60;5.88;;;24.70;99.90;;;;;;4922341;28;90843;-32
2022/07/13 08:19:03;;;;;;;11.00;7.43;;;24.90;99.90;;;;;;4921670;28;89931;-33
2022/07/13 08:21:29;;;;;;;13.02;6.60;;;25.10;99.90;;;;;;4922278;28;88549;-34
2022/07/13 08:23:54;;;;;;;8.18;6.07;;;25.20;99.90;;;;;;4921809;28;89325;-33
2022/07/13 08:26:28;;;;;;;11.88;6.03;;;25.30;99.90;;;;;;4922124;28;90128;-34
2022/07/13 08:28:55;;;;;;;5.85;5.35;;;25.60;99.90;;;;;;4922214;28;89558;-33
2022/07/13 08:31:22;;;;;;;5.57;5.07;;;25.80;99.90;;;;;;4921686;28;88890;-31
2022/07/13 08:39:18;;;;;;;6.68;6.07;;;26.10;99.90;;;;;;4934902;28;89286;-31
2022/07/13 08:41:44;;;;;;;6.38;5.60;;;26.20;99.90;;;;;;4935492;28;87996;-32
2022/07/13 08:44:10;;;;;;;6.32;5.70;;;26.40;99.90;;;;;;4935355;28;90886;-33
2022/07/13 08:46:35;;;;;;;6.15;4.93;;;26.70;99.90;;;;;;4935447;28;90178;-33
2022/07/13 08:49:02;;;;;;;6.85;5.47;;;26.90;99.90;;;;;;4935599;28;89545;-32
2022/07/13 08:51:31;;;;;;;6.88;5.90;;;27.20;99.90;;;;;;4936484;28;88397;-31
2022/07/13 08:53:57;;;;;;;8.23;5.05;;;27.40;99.90;;;;;;4934974;28;90751;-32
2022/07/13 08:56:23;;;;;;;6.32;5.65;;;27.60;99.90;;;;;;4935655;28;88199;-34
2022/07/13 08:58:49;;;;;;;5.90;5.32;;;27.70;99.90;;;;;;4935307;28;89857;-34
2022/07/13 09:01:15;;;;;;;6.50;6.00;;;27.70;99.90;;;;;;4935596;28;87700;-33
2022/07/13 09:03:42;;;;;;;7.63;6.10;;;27.80;99.90;;;;;;4935116;28;89828;-32
2022/07/13 09:06:07;;;;;;;8.70;5.57;;;27.90;99.90;;;;;;4934015;28;91719;-32
2022/07/13 09:08:43;;;;;;;6.03;5.40;;;28.10;99.90;;;;;;4935103;28;90178;-31
2022/07/13 09:11:09;;;;;;;12.15;5.97;;;28.30;99.90;;;;;;4935246;28;87750;-34
2022/07/13 09:13:44;;;;;;;6.35;5.75;;;28.50;99.90;;;;;;4925963;28;90497;-33
2022/07/13 09:16:17;;;;;;;6.38;5.80;;;28.60;99.90;;;;;;4921779;28;89830;-34
2022/07/13 09:18:44;;;;;;;6.72;6.07;;;28.50;99.90;;;;;;4920788;28;90118;-35
2022/07/13 09:21:10;;;;;;;7.28;5.22;;;28.40;99.90;;;;;;4921610;28;90364;-33
2022/07/13 09:23:35;;;;;;;9.55;5.40;;;28.30;99.90;;;;;;4920956;28;89438;-31
2022/07/13 09:26:01;;;;;;;7.03;5.88;;;28.30;99.90;;;;;;4920598;28;89555;-35
2022/07/13 09:28:27;;;;;;;6.63;6.03;;;28.30;99.90;;;;;;4920631;28;90453;-35
2022/07/13 09:31:04;;;;;;;9.27;5.72;;;28.50;99.90;;;;;;4920337;28;89831;-35
2022/07/13 09:33:35;;;;;;;7.03;5.30;;;28.60;99.90;;;;;;4920841;28;90370;-35
2022/07/13 09:36:18;;;;;;;5.93;5.30;;;28.70;99.90;;;;;;4921164;28;90004;-32
2022/07/13 09:38:45;;;;;;;106.75;20.33;;;28.60;99.90;;;;;;4908867;28;89615;-33
2022/07/13 09:41:18;;;;;;;10.45;6.63;;;28.60;99.90;;;;;;4920168;28;88044;-33
2022/07/13 09:46:52;;;;;;;6.70;6.00;;;28.70;99.90;;;;;;4920732;28;89992;-32
2022/07/13 09:49:18;;;;;;;7.50;6.20;;;28.60;99.90;;;;;;4921201;28;90468;-32
2022/07/13 09:51:45;;;;;;;6.47;5.82;;;28.70;99.90;;;;;;4921488;28;89796;-35
2022/07/13 09:54:16;;;;;;;7.95;5.95;;;28.80;99.90;;;;;;4920357;28;90597;-34
2022/07/13 09:56:49;;;;;;;6.05;5.45;;;28.80;99.90;;;;;;4920423;28;90139;-34
2022/07/13 09:59:16;;;;;;;21.15;6.53;;;28.80;99.90;;;;;;4920238;28;90796;-33
2022/07/13 10:01:45;;;;;;;5.43;4.93;;;28.90;99.90;;;;;;4921742;28;89061;-32
2022/07/13 10:04:12;;;;;;;6.43;5.82;;;28.70;99.90;;;;;;4920931;28;90418;-33
2022/07/13 10:06:38;;;;;;;7.97;5.40;;;28.70;99.90;;;;;;4919963;28;89872;-34
2022/07/13 10:09:04;;;;;;;6.80;5.50;;;28.80;99.90;;;;;;4919658;28;89294;-34
2022/07/13 10:11:30;;;;;;;5.78;5.05;;;28.90;99.90;;;;;;4921442;28;89117;-33
2022/07/13 10:13:57;;;;;;;5.75;5.20;;;28.90;99.90;;;;;;4920868;28;90103;-32
2022/07/13 10:16:23;;;;;;;6.80;6.10;;;28.80;99.90;;;;;;4919880;28;89393;-35
2022/07/13 10:18:51;;;;;;;7.68;5.78;;;28.90;99.90;;;;;;4920500;28;89332;-32
2022/07/13 10:21:26;;;;;;;17.25;7.50;;;28.90;99.90;;;;;;4920023;28;90388;-32
2022/07/13 10:23:52;;;;;;;6.70;5.93;;;28.90;99.90;;;;;;4920107;28;89362;-35
2022/07/13 10:26:19;;;;;;;36.75;9.45;;;29.00;99.90;;;;;;4920151;28;89675;-33
2022/07/13 10:29:05;;;;;;;7.10;4.93;;;29.00;99.90;;;;;;4923020;28;90389;-31
2022/07/13 10:31:33;;;;;;;6.53;5.88;;;29.20;99.90;;;;;;4920599;28;88238;-34
2022/07/13 10:34:00;;;;;;;5.93;5.43;;;29.30;99.90;;;;;;4922337;28;90435;-33
2022/07/13 10:36:47;;;;;;;13.23;6.43;;;29.10;99.90;;;;;;4922181;28;89569;-34
2022/07/13 10:39:13;;;;;;;12.27;5.93;;;29.00;99.90;;;;;;4924327;28;89690;-32
2022/07/13 10:42:02;;;;;;;5.93;5.40;;;28.80;99.90;;;;;;4924699;28;89305;-35
2022/07/13 10:44:36;;;;;;;5.05;4.57;;;28.60;99.90;;;;;;4924973;28;90305;-35
2022/07/13 10:47:03;;;;;;;6.63;5.55;;;28.30;99.90;;;;;;4929576;28;89269;-31
2022/07/13 10:49:38;;;;;;;6.80;4.50;;;28.20;99.90;;;;;;4930915;28;90389;-33
2022/07/13 10:52:22;;;;;;;5.45;4.95;;;28.00;99.90;;;;;;4924008;28;88491;-33
2022/07/13 10:55:03;;;;;;;5.15;4.32;;;27.90;99.90;;;;;;4916021;28;90379;-32
2022/07/13 10:57:30;;;;;;;4.97;4.35;;;27.80;99.90;;;;;;4930105;28;89395;-31
2022/07/13 11:00:18;;;;;;;4.20;3.90;;;27.80;99.90;;;;;;4927638;28;89824;-33
2022/07/13 11:02:47;;;;;;;4.38;3.95;;;27.90;99.90;;;;;;4925624;28;89055;-33
2022/07/13 11:05:15;;;;;;;5.32;3.85;;;27.80;99.90;;;;;;4928687;28;90903;-35
2022/07/13 11:07:44;;;;;;;;;;;27.80;99.90;;;;;;4932191;28;89548;-33
2022/07/13 11:10:21;;;;;;;4.30;3.90;;;28.00;99.90;;;;;;4922242;28;88799;-31
2022/07/13 11:13:09;;;;;;;3.65;3.17;;;28.20;99.90;;;;;;4922366;28;89701;-35
2022/07/13 11:15:44;;;;;;;5.60;3.25;;;28.40;99.10;;;;;;4924667;28;90179;-35
2022/07/13 11:18:22;;;;;;;4.22;3.78;;;28.60;99.90;;;;;;4925507;28;89619;-32
2022/07/13 11:21:12;;;;;;;3.03;2.78;;;28.80;95.00;;;;;;4923056;28;89281;-33
2022/07/13 11:26:46;;;;;;;3.10;2.78;;;28.70;93.80;;;;;;4929433;28;90419;-32
2022/07/13 11:29:15;;;;;;;4.40;2.67;;;28.70;92.00;;;;;;4926035;28;88292;-32
2022/07/13 11:31:41;;;;;;;3.58;3.28;;;28.70;84.30;;;;;;4923827;28;89090;-34
2022/07/13 11:34:07;;;;;;;2.83;2.63;;;28.60;86.50;;;;;;4923485;28;89132;-33
2022/07/13 11:36:33;;;;;;;12.55;3.83;;;28.50;90.80;;;;;;4924735;28;90188;-32
2022/07/13 11:38:58;;;;;;;2.60;2.40;;;28.40;87.50;;;;;;4925742;28;90871;-38
2022/07/13 11:41:24;;;;;;;3.88;2.65;;;28.30;81.80;;;;;;4926192;28;90347;-31
2022/07/13 11:43:51;;;;;;;3.20;3.00;;;28.10;86.30;;;;;;4930955;28;88266;-33
2022/07/13 11:46:25;;;;;;;27.13;5.35;;;28.20;79.60;;;;;;4924175;28;90174;-32
2022/07/13 11:48:59;;;;;;;4.60;2.95;;;28.40;78.50;;;;;;4910828;28;89608;-31
2022/07/13 11:51:25;;;;;;;2.60;2.40;;;28.50;73.10;;;;;;4926196;28;88058;-32
2022/07/13 11:53:50;;;;;;;2.92;2.70;;;28.40;74.20;;;;;;4930367;28;89736;-34
2022/07/13 11:56:16;;;;;;;5.13;2.80;;;28.40;76.80;;;;;;4924511;28;90506;-34
2022/07/13 11:58:45;;;;;;;5.78;3.15;;;28.50;75.40;;;;;;4930186;28;89519;-32
2022/07/13 12:01:12;;;;;;;3.22;2.90;;;28.70;68.30;;;;;;4923041;28;89194;-33
2022/07/13 12:03:38;;;;;;;2.72;2.53;;;28.60;68.20;;;;;;4920869;28;88154;-34
2022/07/13 12:06:05;;;;;;;2.72;2.53;;;28.40;67.50;;;;;;4949961;23;90370;-36
2022/07/13 12:08:35;;;;;;;4.40;3.50;;;28.10;70.30;;;;;;4903997;28;89559;-33
2022/07/13 12:11:03;;;;;;;13.15;4.05;;;27.90;73.60;;;;;;4901258;28;89562;-34
2022/07/13 12:13:37;;;;;;;7.03;4.05;;;28.00;77.50;;;;;;4901569;28;89136;-34
2022/07/13 12:16:05;;;;;;;6.53;3.60;;;28.40;90.20;;;;;;4900531;28;90335;-33
2022/07/13 12:18:31;;;;;;;2.55;2.42;;;28.60;79.50;;;;;;4901555;28;90040;-32
2022/07/13 12:20:58;;;;;;;11.05;2.83;;;28.80;74.20;;;;;;4900716;28;89955;-34
2022/07/13 12:23:26;;;;;;;3.50;3.20;;;28.90;67.40;;;;;;4901027;28;88959;-33
2022/07/13 12:26:06;;;;;;;4.55;4.13;;;29.00;63.70;;;;;;4900294;28;90541;-33
2022/07/13 12:28:32;;;;;;;4.05;2.55;;;28.80;66.90;;;;;;4899998;28;90723;-35
2022/07/13 12:31:00;;;;;;;2.72;2.53;;;28.60;66.00;;;;;;4900624;28;90876;-33
2022/07/13 12:33:25;;;;;;;;;;;28.50;70.50;;;;;;4900731;28;88724;-32
2022/07/13 12:36:04;;;;;;;2.70;2.50;;;28.50;71.10;;;;;;4901928;28;89208;-32
2022/07/13 12:38:31;;;;;;;3.05;2.83;;;28.50;77.80;;;;;;4900738;28;89752;-33
2022/07/13 12:40:59;;;;;;;4.67;3.23;;;28.40;86.30;;;;;;4900682;28;89827;-33
2022/07/13 12:43:26;;;;;;;2.53;2.17;;;28.30;88.60;;;;;;4900745;28;89541;-33
2022/07/13 12:45:53;;;;;;;3.53;2.88;;;28.20;94.60;;;;;;4899017;28;90354;-34
2022/07/13 12:48:22;;;;;;;3.15;2.90;;;28.20;98.80;;;;;;4900773;28;89776;-34
2022/07/13 12:51:05;;;;;;;5.13;2.78;;;28.20;97.80;;;;;;4901215;28;89475;-33
2022/07/13 12:53:51;;;;;;;4.07;3.40;;;28.20;97.10;;;;;;4899810;28;90688;-33
2022/07/13 12:56:21;;;;;;;3.25;2.65;;;28.30;90.10;;;;;;4887883;28;90019;-33